Accueil
METAR-TAF:

METAR-TAF

Aéroports :

Pau, France

Aéroport de Pau-Pyrénées

latitude: 43-23N, longitude: 000-25W, altitude: 188 m

Observation

Le bulletin a été fait il y a 38 minutes, à 04:30 UTC
Vent 2 kt de est/sud-est
Température 2°C
Humidité 93%
Pression 1027 hPa
Visibilité: 6000 m

METAR: LFBP 180430Z AUTO 11002KT 6000 NSC 02/01 Q1027 TEMPO 0500 FG VV///

Heure: 06:08 (05:08 UTC)

Prévision

Le bulletin a été fait il y a 1 heure et 27 minutes, à 03:41 UTC
Prévision valable du 18 à 03 UTC au 18 à 24 UTC
Vent 2 kt de direction variable
Visibilité 10 km ou plus
Nuages épars à une hauteur de 4000 ft
Temporairement
du 18 à 03 UTC au 18 à 06 UTC
Visibilité: 0500 m
brouillard
Temporairement
du 18 à 18 UTC au 18 à 24 UTC
Visibilité: 3000 m
Ciel couvert à une hauteur de 1000 ft
pluie

TAF: LFBP 180341Z 1803/1824 VRB02KT 9999 SCT040 TEMPO 1803/1806 0500 FG VV/// TEMPO 1818/1824 3000 RA OVC010

Observations et prévisions météorologiques de plus de 4000 aéroports (messages METAR et TAF).

Les stations disponibles sont représentées par des disques jaunes et rouges sur la carte.

Passer la souris dessus pour voir le nom de la station.

Cliquer dessus pour voir les observations et prévisions météorologiques.

Pour changer de carte: cliquez sur les boutons verts avec une croix noire pour zoomer, sur le bouton vert avec un tiret pour effectuer un zoom arrière, ou sur les flèches vertes pour les cartes adjacentes.


METAR-TAF: